Time;durP1;ratioP1;P1;durP2;ratioP2;P2;SDS_P1;SDS_P2;PMS_P1;PMS_P2;Temp;Humidity;BMP_temperature;BMP_pressure;BME280_temperature;BME280_humidity;BME280_pressure;Samples;Min_cycle;Max_cycle;Signal;HPM_P1;HPM_P2
2022/09/16 00:00:26;;;;;;;6.55;4.40;;;;;;;14.26;100.00;96145.06;4994255;28;20160;-69
2022/09/16 00:02:53;;;;;;;8.45;4.55;;;;;;;14.28;100.00;96143.50;5016289;28;20402;-67
2022/09/16 00:05:19;;;;;;;6.43;4.18;;;;;;;14.28;100.00;96139.97;5008533;28;20057;-67
2022/09/16 00:07:44;;;;;;;7.30;4.65;;;;;;;14.25;100.00;96133.28;5013263;28;20049;-67
2022/09/16 00:10:10;;;;;;;9.50;4.95;;;;;;;14.18;100.00;96133.34;5006498;28;20052;-68
2022/09/16 00:12:36;;;;;;;11.70;4.63;;;;;;;14.09;100.00;96144.78;5020910;28;20187;-67
2022/09/16 00:15:02;;;;;;;15.15;4.47;;;;;;;14.13;100.00;96136.50;5016099;28;20129;-68
2022/09/16 00:17:28;;;;;;;8.02;4.55;;;;;;;14.29;100.00;96147.81;4997988;28;20078;-68
2022/09/16 00:19:54;;;;;;;7.05;4.45;;;;;;;14.35;100.00;96145.44;5016528;28;20063;-69
2022/09/16 00:22:20;;;;;;;8.27;4.65;;;;;;;14.38;100.00;96146.59;5017240;28;20128;-68
2022/09/16 00:24:47;;;;;;;10.95;4.68;;;;;;;14.42;100.00;96142.63;5022137;28;20049;-69
2022/09/16 00:27:13;;;;;;;6.32;3.97;;;;;;;14.52;100.00;96141.72;5016485;28;20766;-68
2022/09/16 00:29:38;;;;;;;10.15;4.30;;;;;;;14.58;100.00;96138.56;5021954;28;20033;-68
2022/09/16 00:32:04;;;;;;;9.43;3.80;;;;;;;14.63;100.00;96141.69;5019854;28;20049;-69
2022/09/16 00:34:29;;;;;;;11.48;4.15;;;;;;;14.64;100.00;96147.97;5024279;28;20120;-68
2022/09/16 00:36:55;;;;;;;10.10;3.50;;;;;;;14.64;100.00;96146.00;5031114;28;20046;-69
2022/09/16 00:39:20;;;;;;;10.20;4.00;;;;;;;14.67;100.00;96147.94;5000492;28;20042;-69
2022/09/16 00:41:45;;;;;;;5.93;4.28;;;;;;;14.72;100.00;96146.72;5028056;28;20044;-68
2022/09/16 00:44:48;;;;;;;7.45;3.70;;;;;;;14.65;100.00;96144.03;5018159;28;20043;-70
2022/09/16 00:47:17;;;;;;;7.70;3.88;;;;;;;14.61;100.00;96143.28;5016563;28;20048;-69
2022/09/16 00:49:42;;;;;;;12.93;4.32;;;;;;;14.59;100.00;96143.69;5024900;28;20069;-69
2022/09/16 00:52:09;;;;;;;5.95;4.03;;;;;;;14.61;100.00;96138.53;5012520;28;20739;-69
2022/09/16 00:54:38;;;;;;;13.00;4.28;;;;;;;14.55;100.00;96137.41;5019665;28;20037;-68
2022/09/16 00:57:06;;;;;;;10.43;4.93;;;;;;;14.46;100.00;96139.84;5015332;28;20049;-69
2022/09/16 00:59:36;;;;;;;8.10;4.00;;;;;;;14.54;100.00;96131.09;5020751;28;20061;-67
2022/09/16 01:02:05;;;;;;;;;;;;;;;14.60;100.00;96136.97;5005735;28;20041;-68
2022/09/16 01:04:42;;;;;;;6.43;4.13;;;;;;;14.65;100.00;96138.53;5001026;28;19921;-67
2022/09/16 01:07:08;;;;;;;9.32;4.05;;;;;;;14.60;100.00;96139.72;5013974;28;20033;-66
2022/09/16 01:09:34;;;;;;;11.48;4.30;;;;;;;14.49;100.00;96142.53;5021755;28;20411;-66
2022/09/16 01:12:00;;;;;;;9.52;4.05;;;;;;;14.38;100.00;96136.34;4984695;28;20124;-67
2022/09/16 01:17:26;;;;;;;6.05;3.15;;;;;;;14.51;100.00;96134.69;5011532;28;20045;-67
2022/09/16 01:20:26;;;;;;;5.53;2.85;;;;;;;14.62;100.00;96144.84;5013288;28;20103;-68
2022/09/16 01:23:33;;;;;;;10.05;3.35;;;;;;;14.66;100.00;96140.09;4995982;28;20068;-69
2022/09/16 01:26:13;;;;;;;5.28;2.92;;;;;;;14.67;100.00;96147.16;5001549;28;20069;-68
2022/09/16 01:28:38;;;;;;;;;;;;;;;14.74;100.00;96149.06;5018670;28;20045;-68
2022/09/16 01:31:27;;;;;;;7.87;2.93;;;;;;;14.71;100.00;96145.94;5014455;28;19913;-68
2022/09/16 01:34:09;;;;;;;8.27;3.60;;;;;;;14.66;100.00;96146.38;5010514;28;20065;-67
2022/09/16 01:36:49;;;;;;;12.50;3.72;;;;;;;14.67;100.00;96144.41;5017376;28;20030;-68
2022/09/16 01:39:28;;;;;;;10.13;3.25;;;;;;;14.71;100.00;96139.63;5012560;28;20037;-68
2022/09/16 01:41:56;;;;;;;8.60;3.67;;;;;;;14.62;100.00;96134.63;5025655;28;20065;-65
2022/09/16 01:44:49;;;;;;;7.78;3.47;;;;;;;14.64;100.00;96139.69;5015370;28;20075;-67
2022/09/16 01:47:20;;;;;;;7.32;3.47;;;;;;;14.69;100.00;96133.75;4997514;28;20080;-67
2022/09/16 01:50:02;;;;;;;10.68;3.35;;;;;;;14.67;100.00;96139.66;5025064;28;20041;-67
2022/09/16 01:52:40;;;;;;;9.40;3.22;;;;;;;14.64;100.00;96148.75;5006045;28;20103;-67
2022/09/16 01:55:09;;;;;;;7.50;3.00;;;;;;;14.68;100.00;96152.25;5021105;28;20044;-67
2022/09/16 01:57:49;;;;;;;6.30;3.60;;;;;;;14.59;100.00;96146.44;5009747;28;20037;-67
2022/09/16 02:00:14;;;;;;;;;;;;;;;14.47;100.00;96144.91;5022420;28;20102;-68
2022/09/16 02:02:42;;;;;;;7.95;4.90;;;;;;;14.34;100.00;96150.13;5023000;28;19913;-67
2022/09/16 02:05:15;;;;;;;7.60;4.20;;;;;;;14.29;100.00;96158.06;5015277;28;20517;-67
2022/09/16 02:07:46;;;;;;;12.48;4.28;;;;;;;14.25;100.00;96152.56;5013266;28;20049;-67
2022/09/16 02:10:22;;;;;;;10.48;3.85;;;;;;;14.12;100.00;96146.75;5011392;28;20394;-67
2022/09/16 02:12:49;;;;;;;8.32;4.13;;;;;;;14.11;100.00;96158.16;5019669;28;20052;-66
2022/09/16 02:15:21;;;;;;;9.55;3.95;;;;;;;14.15;100.00;96153.41;5014426;28;20394;-66
2022/09/16 02:17:59;;;;;;;6.32;3.63;;;;;;;14.20;100.00;96164.00;5016747;28;20037;-66
2022/09/16 02:20:27;;;;;;;5.70;3.97;;;;;;;14.29;100.00;96156.06;5010597;28;20414;-66
2022/09/16 02:23:06;;;;;;;13.45;3.83;;;;;;;14.32;100.00;96154.50;5017371;28;20137;-69
2022/09/16 02:25:34;;;;;;;7.93;3.63;;;;;;;14.38;100.00;96158.38;5018996;28;20025;-68
2022/09/16 02:28:04;;;;;;;11.95;3.83;;;;;;;14.34;100.00;96169.41;5036703;28;20058;-67
2022/09/16 02:30:31;;;;;;;7.50;3.58;;;;;;;14.33;100.00;96167.06;4989996;28;20506;-66
2022/09/16 02:33:02;;;;;;;7.60;3.95;;;;;;;14.33;100.00;96159.59;5026992;28;20115;-68
2022/09/16 02:35:30;;;;;;;8.38;4.10;;;;;;;14.24;100.00;96164.78;4993313;28;20402;-68
2022/09/16 02:38:05;;;;;;;7.82;4.10;;;;;;;14.23;100.00;96156.91;5026484;28;20041;-68
2022/09/16 02:40:36;;;;;;;8.93;4.40;;;;;;;14.13;100.00;96153.84;5015925;28;20042;-68
2022/09/16 02:43:02;;;;;;;10.88;3.90;;;;;;;14.12;100.00;96159.75;5023869;28;20025;-68
2022/09/16 02:46:17;;;;;;;7.82;4.40;;;;;;;13.87;100.00;96146.13;5018809;28;20045;-68
2022/09/16 02:48:55;;;;;;;6.88;4.07;;;;;;;13.65;100.00;96146.22;4967871;28;20034;-68
2022/09/16 02:51:30;;;;;;;11.15;4.75;;;;;;;13.62;100.00;96146.25;5011694;28;20491;-68
2022/09/16 02:54:21;;;;;;;8.63;4.93;;;;;;;13.72;100.00;96139.88;5022030;28;20049;-67
2022/09/16 02:56:47;;;;;;;11.02;5.10;;;;;;;13.58;100.00;96127.78;5018044;28;20092;-67
2022/09/16 02:59:14;;;;;;;7.70;5.15;;;;;;;13.42;100.00;96129.44;4999683;28;20077;-68
2022/09/16 03:01:43;;;;;;;7.22;4.85;;;;;;;13.42;100.00;96137.69;5017416;28;20121;-68
2022/09/16 03:04:10;;;;;;;9.25;5.13;;;;;;;13.53;100.00;96136.44;5018395;28;20057;-67
2022/09/16 03:06:36;;;;;;;10.07;5.85;;;;;;;13.62;100.00;96130.50;5006573;28;20045;-68
2022/09/16 03:09:06;;;;;;;10.25;5.03;;;;;;;13.65;100.00;96128.91;5013685;28;20500;-68
2022/09/16 03:12:04;;;;;;;13.77;5.32;;;;;;;13.75;100.00;96117.06;5017950;28;20046;-67
2022/09/16 03:15:11;;;;;;;10.98;5.10;;;;;;;13.94;100.00;96118.56;5026443;28;20045;-69
2022/09/16 03:17:48;;;;;;;8.80;5.05;;;;;;;13.88;100.00;96118.19;5021834;28;20037;-67
2022/09/16 03:20:28;;;;;;;7.30;5.30;;;;;;;13.85;100.00;96113.50;5018141;28;20065;-67
2022/09/16 03:23:27;;;;;;;10.98;5.10;;;;;;;13.84;100.00;96111.13;5020449;28;20506;-69
2022/09/16 03:26:08;;;;;;;13.45;7.78;;;;;;;14.02;100.00;96111.81;5001936;28;20056;-69
2022/09/16 03:28:46;;;;;;;14.15;9.40;;;;;;;13.99;100.00;96114.56;4998032;28;20049;-66
2022/09/16 03:31:27;;;;;;;9.43;5.93;;;;;;;13.97;100.00;96101.22;5025536;28;20099;-68
2022/09/16 03:34:22;;;;;;;12.15;5.65;;;;;;;14.03;100.00;96107.88;5017724;28;20128;-67
2022/09/16 03:37:01;;;;;;;11.63;5.50;;;;;;;14.03;100.00;96109.84;5002596;28;20143;-68
2022/09/16 03:39:26;;;;;;;7.90;5.20;;;;;;;13.99;100.00;96107.13;4999731;28;20047;-68
2022/09/16 03:41:52;;;;;;;9.35;5.43;;;;;;;13.97;100.00;96109.47;5025021;28;20128;-68
2022/09/16 03:44:18;;;;;;;9.63;5.75;;;;;;;13.98;100.00;96099.25;5020145;28;20044;-68
2022/09/16 03:46:43;;;;;;;7.63;5.20;;;;;;;13.96;100.00;96096.91;5023078;28;20108;-68
2022/09/16 03:49:09;;;;;;;13.35;5.45;;;;;;;14.01;100.00;96092.94;5024429;28;20040;-68
2022/09/16 03:51:35;;;;;;;8.07;5.35;;;;;;;14.04;100.00;96094.88;5026115;28;20036;-69
2022/09/16 03:54:00;;;;;;;6.18;4.97;;;;;;;13.98;100.00;96091.78;5027041;28;20079;-67
2022/09/16 03:56:26;;;;;;;7.45;5.35;;;;;;;13.99;100.00;96095.31;5024220;28;20075;-67
2022/09/16 03:58:51;;;;;;;13.52;9.55;;;;;;;14.09;100.00;96091.69;5031461;28;20034;-66
2022/09/16 04:01:16;;;;;;;10.30;5.05;;;;;;;14.25;100.00;96088.44;5010943;28;20042;-67
2022/09/16 04:03:42;;;;;;;7.97;4.60;;;;;;;14.28;100.00;96082.91;5023119;28;20092;-67
2022/09/16 04:06:08;;;;;;;8.10;5.40;;;;;;;14.25;100.00;96086.47;5020292;28;20041;-68
2022/09/16 04:08:34;;;;;;;8.40;5.30;;;;;;;14.17;100.00;96079.47;5023635;28;20037;-68
2022/09/16 04:11:04;;;;;;;6.95;5.00;;;;;;;14.17;100.00;96081.41;5024096;28;20051;-70
2022/09/16 04:13:32;;;;;;;8.88;5.80;;;;;;;14.15;100.00;96073.56;5006102;28;20486;-68
2022/09/16 04:15:59;;;;;;;6.88;5.47;;;;;;;14.11;100.00;96068.06;5026775;28;21103;-67
2022/09/16 04:18:24;;;;;;;9.90;5.47;;;;;;;14.03;100.00;96066.56;5022721;28;20607;-68
2022/09/16 04:20:54;;;;;;;10.82;5.60;;;;;;;13.90;100.00;96066.28;5029201;28;20048;-68
2022/09/16 04:23:19;;;;;;;8.82;6.03;;;;;;;13.79;100.00;96067.53;5017724;28;20073;-69
2022/09/16 04:26:02;;;;;;;8.93;5.78;;;;;;;13.73;100.00;96058.91;5026826;28;20081;-68
2022/09/16 04:28:29;;;;;;;7.60;5.43;;;;;;;13.85;100.00;96063.94;5006034;28;20044;-68
2022/09/16 04:30:59;;;;;;;8.20;4.90;;;;;;;13.92;100.00;96052.13;5023174;28;20037;-69
2022/09/16 04:33:31;;;;;;;10.77;5.72;;;;;;;13.98;100.00;96055.22;5022068;28;20049;-69
2022/09/16 04:36:05;;;;;;;7.57;5.22;;;;;;;14.04;100.00;96056.34;5010908;28;20061;-68
2022/09/16 04:38:30;;;;;;;7.25;5.28;;;;;;;13.98;100.00;96049.72;5003468;28;20033;-68
2022/09/16 04:41:10;;;;;;;10.10;5.20;;;;;;;13.90;100.00;96049.75;5025953;28;20558;-69
2022/09/16 04:43:35;;;;;;;;;;;;;;;13.93;100.00;96050.91;5021044;28;20045;-68
2022/09/16 04:46:01;;;;;;;11.03;5.37;;;;;;;13.92;100.00;96047.38;5024512;28;19940;-69
2022/09/16 04:48:27;;;;;;;9.27;5.93;;;;;;;13.89;100.00;96044.66;5012588;28;20288;-68
2022/09/16 04:50:53;;;;;;;7.55;4.78;;;;;;;13.84;100.00;96056.09;5020684;28;20048;-67
2022/09/16 04:53:20;;;;;;;7.25;5.18;;;;;;;13.88;100.00;96057.66;5018738;28;20041;-68
2022/09/16 04:55:47;;;;;;;12.63;6.10;;;;;;;13.90;100.00;96057.22;5027681;28;20426;-68
2022/09/16 04:58:13;;;;;;;10.10;5.43;;;;;;;13.93;100.00;96061.91;5016081;28;20053;-68
2022/09/16 05:00:39;;;;;;;12.38;6.25;;;;;;;13.95;100.00;96060.34;5000818;28;20057;-69
2022/09/16 05:03:04;;;;;;;9.60;5.20;;;;;;;14.02;100.00;96062.25;5002972;28;20044;-65
2022/09/16 05:05:30;;;;;;;7.85;5.20;;;;;;;14.02;100.00;96051.22;5005234;28;20041;-67
2022/09/16 05:07:55;;;;;;;9.85;5.40;;;;;;;14.06;100.00;96054.75;5020869;28;20108;-66
2022/09/16 05:10:21;;;;;;;8.63;5.22;;;;;;;14.05;100.00;96055.94;5014599;28;20502;-68
2022/09/16 05:12:51;;;;;;;9.70;6.07;;;;;;;13.96;100.00;96058.38;5020991;28;20737;-68
2022/09/16 05:15:16;;;;;;;;;;;;;;;13.90;100.00;96052.50;5012611;28;20450;-68
2022/09/16 05:17:42;;;;;;;9.10;5.10;;;;;;;13.99;100.00;96054.00;5018944;28;19920;-68
2022/09/16 05:20:07;;;;;;;10.35;6.05;;;;;;;14.07;100.00;96066.56;4997960;28;20443;-67
2022/09/16 05:22:33;;;;;;;11.35;6.07;;;;;;;14.11;100.00;96062.56;5013005;28;20041;-68
2022/09/16 05:24:58;;;;;;;11.32;6.25;;;;;;;14.14;100.00;96063.75;5014981;28;20169;-68
2022/09/16 05:27:26;;;;;;;8.35;6.22;;;;;;;14.12;100.00;96066.13;4991019;28;20145;-68
2022/09/16 05:29:52;;;;;;;10.05;6.40;;;;;;;14.12;100.00;96064.13;5009526;28;20486;-67
2022/09/16 05:32:17;;;;;;;7.57;5.70;;;;;;;14.18;100.00;96066.47;5019904;28;20046;-67
2022/09/16 05:34:43;;;;;;;7.75;5.63;;;;;;;14.21;100.00;96058.19;5019661;28;20037;-67
2022/09/16 05:37:08;;;;;;;9.05;6.22;;;;;;;14.20;100.00;96059.34;5014375;28;20061;-68
2022/09/16 05:39:34;;;;;;;10.02;6.28;;;;;;;14.06;100.00;96063.03;5026406;28;20054;-66
2022/09/16 05:41:59;;;;;;;11.85;6.70;;;;;;;14.00;100.00;96058.34;5041106;28;20033;-67
2022/09/16 05:44:26;;;;;;;13.13;6.55;;;;;;;13.81;100.00;96054.13;5016562;28;20041;-67
2022/09/16 05:46:52;;;;;;;11.55;7.32;;;;;;;13.58;100.00;96060.97;5024901;28;20037;-67
2022/09/16 05:49:19;;;;;;;12.52;8.05;;;;;;;13.38;100.00;96064.22;5029692;28;20059;-67
2022/09/16 05:51:46;;;;;;;14.10;8.52;;;;;;;13.26;100.00;96059.13;5031173;28;20052;-69
2022/09/16 05:54:12;;;;;;;12.88;8.15;;;;;;;13.33;100.00;96063.84;5015370;28;20049;-69
2022/09/16 05:56:37;;;;;;;13.95;8.77;;;;;;;13.21;100.00;96065.03;5022713;28;20041;-68
2022/09/16 05:59:03;;;;;;;13.70;9.02;;;;;;;13.16;100.00;96059.94;5019856;28;20403;-70
2022/09/16 06:01:30;;;;;;;15.23;9.40;;;;;;;13.13;100.00;96058.78;5010221;28;20041;-68
2022/09/16 06:03:57;;;;;;;12.93;9.45;;;;;;;13.19;100.00;96072.91;5031567;28;20048;-67
2022/09/16 06:06:28;;;;;;;14.70;8.85;;;;;;;13.32;100.00;96065.78;4996840;28;20172;-67
2022/09/16 06:08:59;;;;;;;13.43;9.48;;;;;;;13.40;100.00;96063.81;5016103;28;20037;-68
2022/09/16 06:11:26;;;;;;;13.20;9.70;;;;;;;13.55;100.00;96056.25;5009486;28;20050;-68
2022/09/16 06:14:00;;;;;;;11.63;9.05;;;;;;;13.56;100.00;96052.34;5012216;28;20038;-67
2022/09/16 06:16:27;;;;;;;12.07;8.77;;;;;;;13.50;100.00;96048.44;5022936;28;20049;-67
2022/09/16 06:18:56;;;;;;;12.43;8.27;;;;;;;13.65;100.00;96046.38;5035292;28;20043;-67
2022/09/16 06:21:22;;;;;;;14.07;8.98;;;;;;;14.07;100.00;96044.53;5015975;28;20045;-67
2022/09/16 06:23:47;;;;;;;11.02;7.72;;;;;;;14.15;100.00;96038.56;5007493;28;20045;-67
2022/09/16 06:26:15;;;;;;;16.60;10.80;;;;;;;14.32;100.00;96047.06;5010657;28;20402;-68
2022/09/16 06:28:41;;;;;;;19.85;13.07;;;;;;;14.32;100.00;96049.81;5020713;28;20563;-67
2022/09/16 06:31:12;;;;;;;10.88;7.30;;;;;;;14.30;100.00;96046.69;5017626;28;20134;-67
2022/09/16 06:33:38;;;;;;;9.23;6.93;;;;;;;14.36;100.00;96050.56;5016024;28;20125;-69
2022/09/16 06:36:09;;;;;;;13.95;8.05;;;;;;;14.29;100.00;96045.88;5010208;28;20137;-68
2022/09/16 06:38:35;;;;;;;12.57;7.03;;;;;;;14.40;100.00;96043.03;5016073;28;20041;-68
2022/09/16 06:41:02;;;;;;;9.60;6.65;;;;;;;14.61;100.00;96047.59;5016076;28;20049;-69
2022/09/16 06:43:28;;;;;;;10.82;6.68;;;;;;;14.86;100.00;96041.06;5011868;28;20051;-68
2022/09/16 06:46:05;;;;;;;9.55;6.05;;;;;;;14.68;100.00;96044.78;5022947;28;20421;-67
2022/09/16 06:48:33;;;;;;;9.63;6.30;;;;;;;14.67;100.00;96037.69;5023129;28;20112;-68
2022/09/16 06:50:59;;;;;;;10.00;6.70;;;;;;;14.58;100.00;96044.88;5011908;28;20044;-68
2022/09/16 06:53:26;;;;;;;10.05;6.75;;;;;;;14.76;100.00;96051.00;5011001;28;20128;-68
2022/09/16 06:55:51;;;;;;;10.02;6.65;;;;;;;14.85;100.00;96051.28;5018755;28;20045;-68
2022/09/16 06:58:17;;;;;;;12.48;6.40;;;;;;;15.01;100.00;96056.22;5013339;28;20783;-68
2022/09/16 07:00:42;;;;;;;9.57;6.35;;;;;;;15.06;100.00;96055.00;5014525;28;20108;-68
2022/09/16 07:03:07;;;;;;;9.68;6.38;;;;;;;15.04;100.00;96062.91;5014668;28;20064;-67
2022/09/16 07:05:33;;;;;;;9.40;6.63;;;;;;;15.10;100.00;96055.75;5010320;28;20494;-67
2022/09/16 07:07:59;;;;;;;7.93;6.28;;;;;;;15.07;100.00;96057.34;5019838;28;20056;-68
2022/09/16 07:10:24;;;;;;;9.35;6.63;;;;;;;15.06;100.00;96061.31;5008528;28;20127;-68
2022/09/16 07:12:50;;;;;;;17.23;8.43;;;;;;;15.05;100.00;96056.19;5022711;28;20501;-68
2022/09/16 07:15:16;;;;;;;13.02;7.65;;;;;;;15.06;100.00;96060.53;5014332;28;20033;-68
2022/09/16 07:17:41;;;;;;;12.52;7.90;;;;;;;15.01;100.00;96066.50;5023328;28;20038;-67
2022/09/16 07:20:07;;;;;;;9.75;6.75;;;;;;;14.93;100.00;96063.03;5004241;28;20179;-68
2022/09/16 07:22:32;;;;;;;13.20;7.57;;;;;;;14.94;100.00;96072.09;5018980;28;20056;-68
2022/09/16 07:24:58;;;;;;;10.38;7.85;;;;;;;14.89;100.00;96076.84;5025001;28;20029;-69
2022/09/16 07:27:23;;;;;;;11.30;8.20;;;;;;;14.84;100.00;96079.28;5014582;28;20590;-68
2022/09/16 07:29:48;;;;;;;13.52;7.30;;;;;;;14.76;100.00;96072.25;5000121;28;20048;-67
2022/09/16 07:32:14;;;;;;;12.05;7.93;;;;;;;14.71;100.00;96079.00;5005296;28;20395;-67
2022/09/16 07:34:39;;;;;;;10.50;7.40;;;;;;;14.64;100.00;96077.13;5020307;28;20044;-67
2022/09/16 07:37:05;;;;;;;10.07;7.43;;;;;;;14.74;100.00;96085.69;5015561;28;21220;-64
2022/09/16 07:39:31;;;;;;;10.20;7.70;;;;;;;14.69;100.00;96084.94;5012123;28;20040;-69
2022/09/16 07:41:56;;;;;;;14.55;9.75;;;;;;;14.86;100.00;96088.69;5023761;28;20039;-69
2022/09/16 07:44:21;;;;;;;15.32;8.27;;;;;;;14.91;100.00;96082.75;5010456;28;20052;-69
2022/09/16 07:46:49;;;;;;;14.35;8.07;;;;;;;14.98;100.00;96084.66;5014565;28;20045;-69
2022/09/16 07:49:16;;;;;;;12.02;7.97;;;;;;;14.97;100.00;96088.59;5014089;28;20132;-70
2022/09/16 07:51:42;;;;;;;12.50;7.13;;;;;;;14.99;100.00;96086.19;5023199;28;20550;-67
2022/09/16 07:54:13;;;;;;;17.13;7.18;;;;;;;15.11;100.00;96093.19;5021068;28;20529;-67
2022/09/16 07:56:40;;;;;;;11.18;7.10;;;;;;;15.25;100.00;96090.25;5019077;28;20135;-67
2022/09/16 07:59:10;;;;;;;10.50;7.55;;;;;;;15.39;100.00;96092.03;5018032;28;20056;-65
2022/09/16 08:01:36;;;;;;;14.32;7.18;;;;;;;15.29;100.00;96093.75;5027363;28;20167;-65
2022/09/16 08:04:01;;;;;;;13.50;6.97;;;;;;;15.33;100.00;96082.66;5025155;28;20136;-67
2022/09/16 08:06:29;;;;;;;12.48;7.47;;;;;;;15.38;100.00;96090.50;5015030;28;20487;-68
2022/09/16 08:08:58;;;;;;;11.45;6.63;;;;;;;15.38;100.00;96087.72;5027602;28;20056;-65
2022/09/16 08:11:25;;;;;;;8.65;5.97;;;;;;;15.51;100.00;96092.72;5019271;28;20613;-66
2022/09/16 08:13:51;;;;;;;11.15;6.63;;;;;;;15.65;100.00;96082.25;5020141;28;20045;-68
2022/09/16 08:16:19;;;;;;;8.75;5.78;;;;;;;15.83;100.00;96087.56;5016964;28;20064;-68
2022/09/16 08:18:46;;;;;;;12.68;6.70;;;;;;;16.07;100.00;96090.38;5022807;28;20042;-68
2022/09/16 08:21:20;;;;;;;12.40;5.65;;;;;;;16.19;100.00;96089.03;5020913;28;20069;-68
2022/09/16 08:23:47;;;;;;;12.20;6.38;;;;;;;16.12;100.00;96095.44;5024798;28;20033;-68
2022/09/16 08:26:14;;;;;;;12.50;6.78;;;;;;;16.10;100.00;96094.25;5010345;28;20049;-67
2022/09/16 08:28:41;;;;;;;11.65;6.30;;;;;;;16.06;100.00;96097.09;5011303;28;20037;-69
2022/09/16 08:31:07;;;;;;;12.52;7.10;;;;;;;15.74;100.00;96100.28;5028652;28;20089;-68
2022/09/16 08:33:33;;;;;;;8.35;6.15;;;;;;;15.86;100.00;96091.44;5022724;28;20042;-67
2022/09/16 08:35:59;;;;;;;15.45;6.55;;;;;;;16.16;100.00;96098.91;4999377;28;20044;-68
2022/09/16 08:38:25;;;;;;;8.43;5.95;;;;;;;16.57;100.00;96097.09;5011644;28;20046;-67
2022/09/16 08:40:56;;;;;;;10.43;7.18;;;;;;;16.97;100.00;96097.19;5022061;28;20046;-68
2022/09/16 08:43:42;;;;;;;14.45;8.57;;;;;;;17.54;100.00;96098.84;5008432;28;20566;-68
2022/09/16 08:46:30;;;;;;;11.43;6.47;;;;;;;17.79;100.00;96092.00;5023890;28;20044;-67
2022/09/16 08:49:19;;;;;;;15.57;7.72;;;;;;;17.48;100.00;96088.69;5023640;28;20096;-68
2022/09/16 08:51:45;;;;;;;10.32;5.85;;;;;;;17.81;100.00;96102.63;5015706;28;20048;-68
2022/09/16 08:54:22;;;;;;;9.00;5.72;;;;;;;17.64;100.00;96088.75;5017629;28;20057;-68
2022/09/16 08:56:48;;;;;;;10.18;6.90;;;;;;;17.77;100.00;96083.31;5017396;28;20045;-68
2022/09/16 08:59:19;;;;;;;12.45;6.53;;;;;;;17.90;100.00;96075.97;5015829;28;20038;-68
2022/09/16 09:02:27;;;;;;;8.75;6.07;;;;;;;17.48;100.00;96083.94;5014766;28;20209;-68
2022/09/16 09:04:52;;;;;;;9.05;5.32;;;;;;;18.72;100.00;96081.50;5025990;28;20044;-67
2022/09/16 09:07:36;;;;;;;10.90;5.03;;;;;;;19.18;100.00;96083.53;5001877;28;20073;-69
2022/09/16 09:10:15;;;;;;;7.43;5.30;;;;;;;19.09;100.00;96084.16;5013025;28;20049;-68
2022/09/16 09:12:51;;;;;;;10.73;5.40;;;;;;;18.95;100.00;96079.00;5023281;28;20095;-69
2022/09/16 09:15:37;;;;;;;6.32;4.22;;;;;;;18.54;100.00;96079.19;5016460;28;20124;-68
2022/09/16 09:18:17;;;;;;;9.32;5.53;;;;;;;18.37;100.00;96079.66;5023995;28;20087;-67
2022/09/16 09:20:55;;;;;;;7.85;5.35;;;;;;;17.69;100.00;96084.72;5023028;28;20132;-67
2022/09/16 09:23:33;;;;;;;8.35;5.30;;;;;;;17.49;100.00;96085.50;5017044;28;20068;-69
2022/09/16 09:26:24;;;;;;;13.48;5.22;;;;;;;17.43;100.00;96078.13;5003067;28;20132;-68
2022/09/16 09:28:52;;;;;;;8.75;5.50;;;;;;;17.25;100.00;96072.94;5014449;28;20136;-68
2022/09/16 09:31:40;;;;;;;11.27;5.50;;;;;;;17.53;100.00;96079.91;5020839;28;20043;-67
2022/09/16 09:34:33;;;;;;;10.80;5.20;;;;;;;18.00;100.00;96067.84;5021659;28;20033;-68
2022/09/16 09:37:05;;;;;;;7.82;5.60;;;;;;;18.35;100.00;96071.75;5010852;28;20506;-68
2022/09/16 09:39:44;;;;;;;11.45;5.15;;;;;;;19.52;100.00;96071.06;5042665;28;20049;-67
2022/09/16 09:42:28;;;;;;;10.23;3.95;;;;;;;19.35;100.00;96068.34;4986742;28;20034;-68
2022/09/16 09:45:12;;;;;;;9.13;4.18;;;;;;;19.41;100.00;96066.63;5038713;28;20041;-68
2022/09/16 09:47:49;;;;;;;9.30;3.70;;;;;;;19.88;100.00;96067.25;5019070;28;20048;-67
2022/09/16 09:50:23;;;;;;;6.43;3.70;;;;;;;19.71;100.00;96064.53;5019288;28;20048;-68
2022/09/16 09:52:54;;;;;;;7.13;3.55;;;;;;;19.81;100.00;96057.16;5031556;28;20128;-68
2022/09/16 09:55:23;;;;;;;5.93;3.30;;;;;;;19.99;100.00;96064.94;5005688;28;20392;-68
2022/09/16 09:58:12;;;;;;;6.40;3.20;;;;;;;19.82;100.00;96062.25;5025392;28;20071;-68
2022/09/16 10:00:37;;;;;;;7.22;2.90;;;;;;;20.61;100.00;96059.00;5033150;28;20051;-68
2022/09/16 10:03:16;;;;;;;10.10;3.90;;;;;;;21.19;95.93;96050.22;5023385;28;20124;-68
2022/09/16 10:05:43;;;;;;;12.07;3.10;;;;;;;21.52;94.56;96052.63;5035460;28;20136;-66
2022/09/16 10:08:29;;;;;;;5.65;3.13;;;;;;;21.01;95.65;96052.84;5037234;28;20489;-67
2022/09/16 10:10:58;;;;;;;5.63;3.30;;;;;;;20.03;100.00;96057.25;5026146;28;20509;-66
2022/09/16 10:13:25;;;;;;;8.18;3.78;;;;;;;19.58;100.00;96049.88;5024380;28;20072;-67
2022/09/16 10:16:09;;;;;;;6.20;2.92;;;;;;;19.71;100.00;96052.66;5021724;28;20137;-67
2022/09/16 10:18:35;;;;;;;7.82;2.90;;;;;;;20.04;100.00;96047.69;5037133;28;20079;-68
2022/09/16 10:21:07;;;;;;;6.85;3.20;;;;;;;20.25;100.00;96044.22;5022400;28;20110;-68
2022/09/16 10:23:34;;;;;;;7.03;3.40;;;;;;;19.79;100.00;96052.03;5019285;28;20610;-67
2022/09/16 10:26:05;;;;;;;7.53;3.33;;;;;;;19.41;100.00;96047.19;5028078;28;20095;-66
2022/09/16 10:28:31;;;;;;;6.40;3.20;;;;;;;19.68;100.00;96046.78;5027171;28;20040;-68
2022/09/16 10:30:59;;;;;;;7.43;3.58;;;;;;;20.00;100.00;96047.78;5028461;28;20499;-68
2022/09/16 10:33:32;;;;;;;7.22;3.33;;;;;;;20.04;97.49;96042.94;5011981;28;20470;-67
2022/09/16 10:36:02;;;;;;;5.57;3.15;;;;;;;19.98;97.45;96039.13;5019390;28;20079;-69
2022/09/16 10:38:43;;;;;;;9.38;3.22;;;;;;;19.56;98.34;96038.44;5020982;28;20038;-67
2022/09/16 10:41:20;;;;;;;6.35;3.30;;;;;;;19.85;96.41;96039.13;5022325;28;20129;-68
2022/09/16 10:43:51;;;;;;;5.85;3.10;;;;;;;19.94;99.24;96088.50;5020430;28;20881;-66
2022/09/16 10:46:18;;;;;;;1.02;0.80;;;;;;;18.62;95.28;96096.44;5015284;28;20496;-66
2022/09/16 10:48:45;;;;;;;1.35;0.70;;;;;;;17.98;100.00;96092.41;5023222;28;20111;-66
2022/09/16 10:51:21;;;;;;;0.88;0.57;;;;;;;17.88;100.00;96086.69;5018858;28;20048;-66
2022/09/16 10:53:55;;;;;;;1.70;0.57;;;;;;;17.19;100.00;96087.28;5028723;28;20037;-67
2022/09/16 10:56:24;;;;;;;3.05;0.75;;;;;;;16.98;100.00;96099.53;5015678;28;20052;-66
2022/09/16 10:59:11;;;;;;;1.13;0.60;;;;;;;16.96;100.00;96095.63;5023445;28;20144;-67
2022/09/16 11:02:10;;;;;;;2.60;0.70;;;;;;;17.16;100.00;96088.16;4986673;28;20478;-66
2022/09/16 11:04:54;;;;;;;1.33;0.68;;;;;;;16.62;100.00;96089.09;5021388;28;20048;-66
2022/09/16 11:07:41;;;;;;;4.43;0.60;;;;;;;16.95;100.00;96099.63;5015391;28;20069;-67
2022/09/16 11:10:15;;;;;;;1.15;0.60;;;;;;;17.08;100.00;96085.94;5014468;28;20033;-67
2022/09/16 11:12:53;;;;;;;4.07;0.63;;;;;;;17.15;100.00;96094.09;5020849;28;20037;-66
2022/09/16 11:15:58;;;;;;;4.97;0.63;;;;;;;17.28;100.00;96091.47;5011899;28;20033;-68
2022/09/16 11:18:45;;;;;;;1.48;0.82;;;;;;;17.21;100.00;96089.63;4962005;28;20801;-67
2022/09/16 11:21:23;;;;;;;1.20;0.70;;;;;;;17.21;100.00;96095.16;5015511;28;20687;-67
2022/09/16 11:24:06;;;;;;;1.45;0.77;;;;;;;17.14;100.00;96098.88;5018959;28;20063;-67
2022/09/16 11:26:46;;;;;;;4.72;1.30;;;;;;;17.11;100.00;96101.69;5012104;28;20083;-66
2022/09/16 11:29:18;;;;;;;2.30;1.30;;;;;;;16.91;100.00;96091.38;5020281;28;20045;-66
2022/09/16 11:31:43;;;;;;;1.38;0.80;;;;;;;17.01;100.00;96092.38;5029050;28;20453;-67
2022/09/16 11:34:34;;;;;;;1.75;0.70;;;;;;;17.22;100.00;96095.97;5013344;28;20124;-66
2022/09/16 11:37:22;;;;;;;1.40;0.77;;;;;;;17.01;100.00;96095.13;5018174;28;20033;-67
2022/09/16 11:40:06;;;;;;;5.80;1.40;;;;;;;17.09;100.00;96102.13;5034384;28;22234;-66
2022/09/16 11:42:41;;;;;;;2.20;0.90;;;;;;;16.85;100.00;96106.13;5016636;28;20136;-67
2022/09/16 11:45:29;;;;;;;4.00;1.00;;;;;;;16.77;100.00;96111.75;5009101;28;20034;-68
2022/09/16 11:48:22;;;;;;;3.08;0.90;;;;;;;16.52;100.00;96109.41;5030028;28;20138;-67